Time;durP1;ratioP1;P1;durP2;ratioP2;P2;SDS_P1;SDS_P2;PMS_P1;PMS_P2;Temp;Humidity;BMP_temperature;BMP_pressure;BME280_temperature;BME280_humidity;BME280_pressure;Samples;Min_cycle;Max_cycle;Signal;HPM_P1;HPM_P2
2023/08/13 00:00:59;;;;;;;9.52;2.90;;;;;;;17.09;100.00;101456.03;5020590;28;20049;-67
2023/08/13 00:03:24;;;;;;;11.52;2.75;;;;;;;17.09;100.00;101453.41;5019507;28;20030;-67
2023/08/13 00:05:50;;;;;;;4.38;2.42;;;;;;;17.07;100.00;101455.41;5018665;28;20516;-67
2023/08/13 00:08:15;;;;;;;6.60;2.70;;;;;;;17.09;100.00;101457.84;5018798;28;20376;-68
2023/08/13 00:10:41;;;;;;;5.88;2.45;;;;;;;17.07;100.00;101460.66;5020207;28;20049;-67
2023/08/13 00:13:06;;;;;;;6.45;2.35;;;;;;;17.07;100.00;101458.03;5017240;28;20026;-67
2023/08/13 00:15:32;;;;;;;4.10;2.45;;;;;;;17.07;100.00;101457.22;5021246;28;20103;-68
2023/08/13 00:17:57;;;;;;;5.35;2.63;;;;;;;17.03;100.00;101462.00;5025910;28;20037;-67
2023/08/13 00:20:22;;;;;;;7.20;2.90;;;;;;;17.01;100.00;101456.16;5024259;28;20049;-68
2023/08/13 00:22:48;;;;;;;7.03;2.83;;;;;;;17.01;100.00;101460.56;5020832;28;20033;-67
2023/08/13 00:25:13;;;;;;;4.85;2.88;;;;;;;17.01;100.00;101457.94;5021852;28;20041;-67
2023/08/13 00:27:39;;;;;;;6.95;2.97;;;;;;;17.01;100.00;101461.38;5018509;28;20022;-67
2023/08/13 00:30:06;;;;;;;5.32;2.60;;;;;;;17.00;100.00;101464.97;5016684;28;20029;-67
2023/08/13 00:32:31;;;;;;;7.28;2.65;;;;;;;16.99;100.00;101462.53;5021868;28;20541;-67
2023/08/13 00:34:57;;;;;;;8.52;2.65;;;;;;;16.95;100.00;101461.28;5016184;28;20033;-67
2023/08/13 00:37:22;;;;;;;8.65;2.33;;;;;;;16.95;100.00;101461.28;5017744;28;20037;-67
2023/08/13 00:39:48;;;;;;;7.28;2.90;;;;;;;16.94;100.00;101463.09;5022326;28;20037;-67
2023/08/13 00:42:13;;;;;;;7.82;2.45;;;;;;;16.95;100.00;101456.84;5014544;28;20750;-67
2023/08/13 00:44:40;;;;;;;5.32;2.50;;;;;;;16.93;100.00;101459.69;5018093;28;20048;-67
2023/08/13 00:47:05;;;;;;;8.18;2.25;;;;;;;16.93;100.00;101464.09;5015798;28;20049;-67
2023/08/13 00:49:32;;;;;;;5.70;2.47;;;;;;;16.94;100.00;101460.47;5014073;28;20538;-67
2023/08/13 00:51:57;;;;;;;6.70;2.30;;;;;;;16.93;100.00;101461.47;5014388;28;20037;-67
2023/08/13 00:54:23;;;;;;;8.32;2.60;;;;;;;16.92;100.00;101460.66;5015433;28;20041;-67
2023/08/13 00:56:50;;;;;;;6.10;2.35;;;;;;;16.91;100.00;101464.28;5016592;28;20076;-68
2023/08/13 00:59:17;;;;;;;4.63;2.10;;;;;;;16.90;100.00;101470.50;5016401;28;20041;-67
2023/08/13 01:01:43;;;;;;;6.32;2.35;;;;;;;16.87;100.00;101470.84;5015441;28;20044;-67
2023/08/13 01:04:08;;;;;;;6.20;2.38;;;;;;;16.86;100.00;101469.25;5016456;28;20029;-67
2023/08/13 01:06:49;;;;;;;5.47;2.50;;;;;;;16.83;100.00;101468.78;5013546;28;20817;-67
2023/08/13 01:09:33;;;;;;;10.05;2.28;;;;;;;16.81;100.00;101466.31;5013043;28;20029;-67
2023/08/13 01:12:23;;;;;;;7.57;2.38;;;;;;;16.77;100.00;101469.50;5009747;28;20037;-67
2023/08/13 01:15:02;;;;;;;5.68;2.38;;;;;;;16.74;100.00;101470.66;5015772;28;20541;-67
2023/08/13 01:17:29;;;;;;;6.32;2.67;;;;;;;16.72;100.00;101473.44;5015240;28;20068;-67
2023/08/13 01:19:55;;;;;;;7.50;2.63;;;;;;;16.71;100.00;101482.31;5019606;28;20132;-67
2023/08/13 01:22:27;;;;;;;4.22;2.42;;;;;;;16.70;100.00;101472.81;5021191;28;20126;-67
2023/08/13 01:24:53;;;;;;;7.23;3.10;;;;;;;16.67;100.00;101474.97;5039083;28;20052;-67
2023/08/13 01:27:28;;;;;;;5.95;2.50;;;;;;;16.62;100.00;101467.66;5022354;28;20045;-67
2023/08/13 01:30:15;;;;;;;5.90;2.42;;;;;;;16.60;100.00;101468.84;5016137;28;20633;-67
2023/08/13 01:32:51;;;;;;;6.47;2.50;;;;;;;16.58;100.00;101470.84;5018621;28;20412;-67
2023/08/13 01:35:19;;;;;;;6.78;2.20;;;;;;;16.54;100.00;101476.44;5019579;28;20038;-67
2023/08/13 01:37:45;;;;;;;7.13;2.40;;;;;;;16.51;100.00;101466.31;5021097;28;20069;-67
2023/08/13 01:40:11;;;;;;;5.65;3.15;;;;;;;16.48;100.00;101473.69;5021133;28;20546;-67
2023/08/13 01:42:37;;;;;;;6.35;2.13;;;;;;;16.43;100.00;101469.00;5002347;28;20037;-68
2023/08/13 01:45:03;;;;;;;6.40;2.10;;;;;;;16.42;100.00;101472.59;5015164;28;20220;-67
2023/08/13 01:47:29;;;;;;;7.15;2.50;;;;;;;16.39;100.00;101475.59;5005183;28;20064;-67
2023/08/13 01:49:54;;;;;;;10.32;3.05;;;;;;;16.35;100.00;101469.09;4999726;28;20045;-67
2023/08/13 01:52:21;;;;;;;8.45;2.78;;;;;;;16.31;100.00;101471.25;4990349;28;20036;-67
2023/08/13 01:54:47;;;;;;;9.35;2.50;;;;;;;16.29;100.00;101472.41;5002468;28;20105;-67
2023/08/13 01:57:12;;;;;;;9.15;2.15;;;;;;;16.27;100.00;101477.00;4998165;28;20042;-67
2023/08/13 01:59:38;;;;;;;6.32;2.65;;;;;;;16.23;100.00;101473.13;5006905;28;20036;-67
2023/08/13 02:02:03;;;;;;;9.52;2.65;;;;;;;16.19;100.00;101477.09;5004868;28;20443;-67
2023/08/13 02:04:28;;;;;;;6.00;1.95;;;;;;;16.13;100.00;101482.03;5005959;28;20084;-67
2023/08/13 02:06:54;;;;;;;8.88;2.15;;;;;;;16.09;100.00;101472.91;5000850;28;20058;-67
2023/08/13 02:09:19;;;;;;;8.43;1.98;;;;;;;16.06;100.00;101473.25;5007878;28;20037;-67
2023/08/13 02:11:45;;;;;;;6.07;2.22;;;;;;;16.05;100.00;101476.03;5003256;28;20036;-67
2023/08/13 02:14:10;;;;;;;6.18;2.70;;;;;;;16.03;100.00;101476.22;5005865;28;20184;-67
2023/08/13 02:16:36;;;;;;;7.00;2.42;;;;;;;16.00;100.00;101468.72;5003876;28;20026;-67
2023/08/13 02:19:03;;;;;;;6.22;2.58;;;;;;;15.99;100.00;101472.31;5002514;28;20124;-67
2023/08/13 02:21:28;;;;;;;6.10;2.40;;;;;;;15.98;100.00;101468.09;5005543;28;20046;-67
2023/08/13 02:23:54;;;;;;;7.43;2.05;;;;;;;15.95;100.00;101461.41;4998822;28;20030;-67
2023/08/13 02:26:19;;;;;;;9.35;2.03;;;;;;;15.93;100.00;101465.97;5006029;28;20030;-67
2023/08/13 02:28:45;;;;;;;8.90;2.83;;;;;;;15.88;100.00;101467.50;5003945;28;20544;-67
2023/08/13 02:31:11;;;;;;;5.90;2.40;;;;;;;15.85;100.00;101470.47;4997566;28;20045;-67
2023/08/13 02:33:36;;;;;;;8.85;2.42;;;;;;;15.83;100.00;101465.41;4995754;28;20029;-67
2023/08/13 02:36:02;;;;;;;8.65;2.90;;;;;;;15.83;100.00;101459.38;4995200;28;20555;-67
2023/08/13 02:38:28;;;;;;;6.90;2.40;;;;;;;15.83;100.00;101464.59;4994680;28;20029;-67
2023/08/13 02:40:53;;;;;;;7.18;2.38;;;;;;;15.82;100.00;101455.13;4995774;28;20046;-67
2023/08/13 02:43:19;;;;;;;10.63;2.33;;;;;;;15.79;100.00;101463.34;4996965;28;20040;-67
2023/08/13 02:45:44;;;;;;;10.18;2.33;;;;;;;15.77;100.00;101469.53;5001669;28;20048;-67
2023/08/13 02:48:11;;;;;;;7.13;2.00;;;;;;;15.74;100.00;101466.47;4999935;28;20037;-67
2023/08/13 02:50:36;;;;;;;7.22;2.03;;;;;;;15.69;100.00;101461.72;4997668;28;20042;-67
2023/08/13 02:53:02;;;;;;;9.77;2.88;;;;;;;15.68;100.00;101461.91;4994873;28;20091;-67
2023/08/13 02:55:27;;;;;;;9.07;2.35;;;;;;;15.66;100.00;101461.25;4994521;28;20037;-67
2023/08/13 02:57:53;;;;;;;8.85;2.38;;;;;;;15.61;100.00;101456.53;4995847;28;20042;-67
2023/08/13 03:00:18;;;;;;;6.00;2.58;;;;;;;15.57;100.00;101453.44;4996488;28;20046;-67
2023/08/13 03:02:44;;;;;;;6.70;2.83;;;;;;;15.55;100.00;101458.03;5000599;28;20030;-67
2023/08/13 03:05:10;;;;;;;11.98;2.50;;;;;;;15.54;100.00;101451.19;5000634;28;20026;-67
2023/08/13 03:07:35;;;;;;;4.10;2.25;;;;;;;15.52;100.00;101450.56;4993425;28;20038;-67
2023/08/13 03:10:01;;;;;;;10.98;2.88;;;;;;;15.49;100.00;101450.09;4996189;28;20139;-67
2023/08/13 03:12:27;;;;;;;8.15;2.47;;;;;;;15.47;100.00;101452.88;5000821;28;20034;-67
2023/08/13 03:14:53;;;;;;;7.75;2.70;;;;;;;15.46;100.00;101448.63;4999562;28;20052;-67
2023/08/13 03:17:19;;;;;;;5.00;2.40;;;;;;;15.44;100.00;101457.63;4999826;28;20052;-67
2023/08/13 03:19:44;;;;;;;5.82;2.00;;;;;;;15.41;100.00;101448.34;4999843;28;20021;-67
2023/08/13 03:22:10;;;;;;;8.55;2.25;;;;;;;15.37;100.00;101458.31;4993686;28;20051;-67
2023/08/13 03:24:36;;;;;;;7.50;2.55;;;;;;;15.33;100.00;101454.44;4999429;28;20666;-67
2023/08/13 03:27:02;;;;;;;7.20;2.20;;;;;;;15.33;100.00;101454.44;4993392;28;20034;-67
2023/08/13 03:29:28;;;;;;;5.18;2.80;;;;;;;15.31;100.00;101448.56;4996517;28;20057;-67
2023/08/13 03:31:56;;;;;;;10.98;2.47;;;;;;;15.30;100.00;101452.16;4997356;28;20033;-67
2023/08/13 03:34:24;;;;;;;8.77;2.55;;;;;;;15.29;100.00;101450.50;5001036;28;20052;-67
2023/08/13 03:36:52;;;;;;;8.45;2.55;;;;;;;15.29;100.00;101450.50;4995498;28;20045;-67
2023/08/13 03:39:17;;;;;;;6.20;2.15;;;;;;;15.29;100.00;101447.88;4998891;28;20041;-67
2023/08/13 03:41:42;;;;;;;8.25;2.42;;;;;;;15.29;100.00;101452.31;4999903;28;20442;-67
2023/08/13 03:44:08;;;;;;;5.60;1.98;;;;;;;15.28;100.00;101455.94;4993658;28;20045;-67
2023/08/13 03:46:33;;;;;;;6.53;2.10;;;;;;;15.26;100.00;101453.47;5001257;28;20046;-67
2023/08/13 03:48:59;;;;;;;7.22;2.10;;;;;;;15.25;100.00;101456.25;5001254;28;20408;-67
2023/08/13 03:51:24;;;;;;;5.35;2.85;;;;;;;15.23;100.00;101456.41;4992199;28;20112;-67
2023/08/13 03:53:51;;;;;;;10.05;3.40;;;;;;;15.19;100.00;101455.94;4997548;28;20053;-67
2023/08/13 03:56:16;;;;;;;4.15;2.38;;;;;;;15.19;100.00;101463.78;5003339;28;20042;-67
2023/08/13 03:58:42;;;;;;;9.52;2.38;;;;;;;15.17;100.00;101462.34;4992676;28;20033;-67
2023/08/13 04:01:11;;;;;;;5.80;2.50;;;;;;;15.17;100.00;101467.56;5000908;28;20552;-67
2023/08/13 04:03:39;;;;;;;10.48;3.13;;;;;;;15.15;100.00;101475.56;4997542;28;20416;-67
2023/08/13 04:06:06;;;;;;;6.65;2.20;;;;;;;15.14;100.00;101473.13;4998497;28;20034;-67
2023/08/13 04:08:34;;;;;;;7.88;2.38;;;;;;;15.12;100.00;101472.47;5000209;28;20369;-67
2023/08/13 04:10:59;;;;;;;8.43;2.22;;;;;;;15.09;100.00;101465.00;4999611;28;20515;-67
2023/08/13 04:13:25;;;;;;;8.65;2.85;;;;;;;15.05;100.00;101468.91;4996271;28;20026;-67
2023/08/13 04:15:52;;;;;;;6.72;2.58;;;;;;;15.01;100.00;101465.81;4996767;28;20064;-67
2023/08/13 04:18:17;;;;;;;6.85;2.38;;;;;;;14.98;100.00;101474.81;5002587;28;20030;-67
2023/08/13 04:20:43;;;;;;;5.80;2.50;;;;;;;14.98;100.00;101474.81;4997339;28;20049;-67
2023/08/13 04:23:08;;;;;;;10.43;2.95;;;;;;;14.96;100.00;101478.56;5002073;28;20033;-67
2023/08/13 04:25:36;;;;;;;7.30;2.30;;;;;;;14.94;100.00;101481.34;4994415;28;20030;-67
2023/08/13 04:28:02;;;;;;;6.90;2.60;;;;;;;14.91;100.00;101476.44;4998753;28;20052;-67
2023/08/13 04:30:31;;;;;;;14.10;2.85;;;;;;;14.88;100.00;101474.19;4997714;28;20040;-67
2023/08/13 04:32:56;;;;;;;5.38;2.70;;;;;;;14.88;100.00;101465.53;5000206;28;20021;-67
2023/08/13 04:35:25;;;;;;;7.57;2.90;;;;;;;14.84;100.00;101467.66;4995923;28;20041;-67
2023/08/13 04:37:52;;;;;;;6.13;2.28;;;;;;;14.84;100.00;101469.47;4998325;28;20040;-67
2023/08/13 04:40:19;;;;;;;6.28;2.55;;;;;;;14.80;100.00;101471.59;4997843;28;20053;-67
2023/08/13 04:42:46;;;;;;;6.72;2.42;;;;;;;14.79;100.00;101473.41;4997196;28;20036;-67
2023/08/13 04:45:15;;;;;;;5.85;2.35;;;;;;;14.81;100.00;101477.66;5002148;28;20037;-67
2023/08/13 04:47:42;;;;;;;9.75;2.92;;;;;;;14.81;100.00;101467.22;5017935;28;20049;-67
2023/08/13 04:50:09;;;;;;;6.55;2.70;;;;;;;14.79;100.00;101464.75;5019554;28;20029;-67
2023/08/13 04:52:35;;;;;;;6.45;2.70;;;;;;;14.79;100.00;101480.41;5013037;28;20046;-67
2023/08/13 04:55:01;;;;;;;7.93;2.20;;;;;;;14.80;100.00;101468.97;5014997;28;20029;-67
2023/08/13 04:57:27;;;;;;;4.18;2.40;;;;;;;14.83;100.00;101480.91;5014567;28;20029;-67
2023/08/13 04:59:52;;;;;;;7.05;2.60;;;;;;;14.86;100.00;101475.31;5018786;28;20523;-67
2023/08/13 05:02:19;;;;;;;7.28;2.55;;;;;;;14.90;100.00;101476.63;5015628;28;20092;-67
2023/08/13 05:04:46;;;;;;;7.22;2.65;;;;;;;14.91;100.00;101465.22;5019875;28;20022;-67
2023/08/13 05:07:11;;;;;;;8.02;2.80;;;;;;;14.95;100.00;101467.31;5016871;28;20037;-67
2023/08/13 05:09:37;;;;;;;10.43;2.17;;;;;;;14.94;100.00;101465.69;5017886;28;20197;-67
2023/08/13 05:12:02;;;;;;;9.35;3.03;;;;;;;14.96;100.00;101463.72;5003246;28;20029;-67
2023/08/13 05:14:28;;;;;;;5.40;2.63;;;;;;;14.98;100.00;101461.75;5002927;28;20109;-67
2023/08/13 05:16:54;;;;;;;7.55;2.72;;;;;;;15.03;100.00;101466.47;5003606;28;20636;-67
2023/08/13 05:19:20;;;;;;;9.52;2.90;;;;;;;15.08;100.00;101465.97;4999510;28;20038;-67
2023/08/13 05:21:47;;;;;;;6.00;2.38;;;;;;;15.09;100.00;101468.41;5014970;28;20125;-67
2023/08/13 05:24:12;;;;;;;11.27;3.72;;;;;;;15.12;100.00;101472.47;5016137;28;20568;-67
2023/08/13 05:26:37;;;;;;;9.55;2.40;;;;;;;15.13;100.00;101469.69;5006166;28;20408;-67
2023/08/13 05:29:03;;;;;;;7.80;2.95;;;;;;;15.15;100.00;101466.91;5003018;28;20503;-67
2023/08/13 05:31:30;;;;;;;8.05;3.03;;;;;;;15.17;100.00;101465.75;5000826;28;20569;-67
2023/08/13 05:33:57;;;;;;;6.60;3.08;;;;;;;15.24;100.00;101463.28;5006064;28;20556;-67
2023/08/13 05:36:24;;;;;;;8.50;3.35;;;;;;;15.26;100.00;101458.69;5009422;28;20044;-67
2023/08/13 05:38:50;;;;;;;9.25;2.60;;;;;;;15.27;100.00;101457.69;5025768;28;20068;-67
2023/08/13 05:41:15;;;;;;;7.43;2.42;;;;;;;15.32;100.00;101463.25;5019459;28;20411;-67
2023/08/13 05:43:41;;;;;;;5.70;2.65;;;;;;;15.36;100.00;101461.91;5035638;28;20572;-67
2023/08/13 05:46:07;;;;;;;4.60;2.70;;;;;;;15.41;100.00;101458.78;5020385;28;20519;-67
2023/08/13 05:48:34;;;;;;;7.10;2.97;;;;;;;15.47;100.00;101457.28;5030209;28;20068;-67
2023/08/13 05:51:00;;;;;;;9.35;2.40;;;;;;;15.49;100.00;101458.72;5015900;28;20489;-67
2023/08/13 05:53:26;;;;;;;10.43;3.63;;;;;;;15.54;100.00;101466.06;5022258;28;20048;-67
2023/08/13 05:55:52;;;;;;;5.53;2.88;;;;;;;15.60;100.00;101461.97;5023307;28;20099;-67
2023/08/13 05:58:18;;;;;;;6.90;3.10;;;;;;;15.68;100.00;101469.75;5019008;28;20428;-67
2023/08/13 06:00:44;;;;;;;12.23;2.78;;;;;;;15.81;100.00;101470.00;5023023;28;20079;-67
2023/08/13 06:03:09;;;;;;;10.50;3.33;;;;;;;15.85;100.00;101468.66;5022469;28;20037;-67
2023/08/13 06:05:37;;;;;;;12.00;2.95;;;;;;;15.87;100.00;101471.13;5023338;28;20104;-67
2023/08/13 06:08:02;;;;;;;13.95;3.38;;;;;;;15.91;100.00;101469.78;5020647;28;20037;-67
2023/08/13 06:10:28;;;;;;;8.55;3.47;;;;;;;15.94;100.00;101474.66;5017521;28;20049;-67
2023/08/13 06:12:53;;;;;;;8.68;2.63;;;;;;;15.96;100.00;101475.28;5004953;28;20066;-67
2023/08/13 06:15:18;;;;;;;7.82;2.78;;;;;;;16.01;100.00;101488.69;5004285;28;20041;-67
2023/08/13 06:17:46;;;;;;;6.18;2.88;;;;;;;16.05;100.00;101481.25;5019104;28;20034;-67
2023/08/13 06:20:12;;;;;;;6.20;2.90;;;;;;;16.09;100.00;101483.38;5017012;28;20044;-67
2023/08/13 06:22:38;;;;;;;7.18;3.47;;;;;;;16.13;100.00;101478.59;5023297;28;20041;-67
2023/08/13 06:25:04;;;;;;;11.02;3.45;;;;;;;16.16;100.00;101470.38;5022373;28;20029;-67
2023/08/13 06:27:30;;;;;;;9.05;2.70;;;;;;;16.23;100.00;101473.13;4997582;28;20046;-67
2023/08/13 06:29:55;;;;;;;11.82;3.17;;;;;;;16.31;100.00;101471.25;5002206;28;20095;-67
2023/08/13 06:32:21;;;;;;;8.07;2.60;;;;;;;16.38;100.00;101475.78;5021772;28;20096;-67
2023/08/13 06:34:46;;;;;;;7.40;2.88;;;;;;;16.43;100.00;101474.25;5022310;28;20036;-67
2023/08/13 06:37:12;;;;;;;8.57;2.30;;;;;;;16.48;100.00;101471.91;5001386;28;20049;-67
2023/08/13 06:39:37;;;;;;;10.45;3.15;;;;;;;16.54;100.00;101473.81;5000301;28;20064;-67
2023/08/13 06:42:03;;;;;;;8.20;3.28;;;;;;;16.61;100.00;101480.94;5005136;28;20573;-67
2023/08/13 06:44:28;;;;;;;6.90;2.50;;;;;;;16.68;100.00;101477.41;5001114;28;20771;-67
2023/08/13 06:46:54;;;;;;;7.07;2.42;;;;;;;16.74;100.00;101473.28;5011483;28;20045;-67
2023/08/13 06:49:20;;;;;;;6.88;2.70;;;;;;;16.78;100.00;101471.09;5020862;28;20045;-67
2023/08/13 06:51:45;;;;;;;8.57;2.42;;;;;;;16.82;100.00;101470.63;5018297;28;20042;-67
2023/08/13 06:54:11;;;;;;;11.38;3.70;;;;;;;16.90;100.00;101469.72;5015998;28;20042;-67
2023/08/13 06:56:37;;;;;;;9.05;2.42;;;;;;;16.91;100.00;101471.31;5022391;28;20045;-67
2023/08/13 06:59:02;;;;;;;11.90;2.70;;;;;;;16.90;100.00;101469.72;5023035;28;20025;-67
2023/08/13 07:01:29;;;;;;;11.82;2.72;;;;;;;16.91;100.00;101461.66;5018654;28;20060;-67
2023/08/13 07:03:57;;;;;;;4.88;2.38;;;;;;;17.08;100.00;101471.94;5021683;28;20022;-67
2023/08/13 07:06:24;;;;;;;11.82;3.17;;;;;;;17.38;100.00;101466.63;5018390;28;20654;-67
2023/08/13 07:08:50;;;;;;;14.57;2.67;;;;;;;17.59;100.00;101474.53;5020698;28;20125;-67
2023/08/13 07:11:16;;;;;;;11.68;2.75;;;;;;;17.96;97.71;101466.66;5024018;28;20046;-67
2023/08/13 07:13:41;;;;;;;13.30;2.80;;;;;;;18.14;95.39;101468.81;5023613;28;20136;-67
2023/08/13 07:16:11;;;;;;;9.77;2.63;;;;;;;18.35;95.60;101467.97;5021868;28;20033;-67
2023/08/13 07:18:37;;;;;;;9.90;2.70;;;;;;;19.17;94.31;101455.91;5019533;28;20218;-68
2023/08/13 07:21:04;;;;;;;9.52;2.42;;;;;;;19.55;88.87;101458.00;5020420;28;20045;-67
2023/08/13 07:23:29;;;;;;;12.30;2.20;;;;;;;19.81;84.79;101454.66;5016497;28;20043;-68
2023/08/13 07:25:55;;;;;;;13.23;2.20;;;;;;;20.30;83.27;101458.69;5012880;28;20035;-68
2023/08/13 07:28:20;;;;;;;8.32;2.28;;;;;;;20.36;81.15;101460.50;5003971;28;20591;-68
2023/08/13 07:30:47;;;;;;;10.75;2.10;;;;;;;20.72;78.14;101467.16;5001323;28;20080;-68
2023/08/13 07:33:13;;;;;;;7.90;2.13;;;;;;;21.13;78.79;101457.25;5006663;28;20041;-67
2023/08/13 07:35:39;;;;;;;9.55;2.60;;;;;;;21.56;74.22;101462.72;5003634;28;20108;-69
2023/08/13 07:38:05;;;;;;;12.07;1.83;;;;;;;21.31;73.71;101462.63;5003143;28;20030;-68
2023/08/13 07:40:31;;;;;;;9.73;1.90;;;;;;;21.35;73.48;101470.94;5004144;28;20393;-68
2023/08/13 07:43:00;;;;;;;11.82;1.60;;;;;;;21.80;75.41;101473.53;5006418;28;20037;-68
2023/08/13 07:45:26;;;;;;;11.90;1.60;;;;;;;21.90;74.43;101467.75;5003766;28;20595;-68
2023/08/13 07:47:52;;;;;;;7.63;1.67;;;;;;;21.64;71.80;101474.84;5000370;28;20042;-69
2023/08/13 07:50:17;;;;;;;12.82;2.20;;;;;;;21.63;73.10;101478.53;5001988;28;20048;-68
2023/08/13 07:52:43;;;;;;;7.18;2.15;;;;;;;21.80;72.53;101472.72;5002867;28;20045;-68
2023/08/13 07:55:08;;;;;;;9.60;1.90;;;;;;;21.73;73.61;101467.47;4999484;28;20057;-68
2023/08/13 07:57:34;;;;;;;13.52;2.67;;;;;;;21.53;75.07;101465.81;5003632;28;20067;-68
2023/08/13 07:59:59;;;;;;;14.82;2.60;;;;;;;21.34;75.85;101462.22;5001983;28;20036;-68
2023/08/13 08:02:25;;;;;;;8.20;1.95;;;;;;;21.35;77.04;101468.31;5000822;28;20088;-68
2023/08/13 08:04:50;;;;;;;12.55;1.83;;;;;;;21.29;74.83;101469.16;5001641;28;20061;-68
2023/08/13 08:07:18;;;;;;;13.38;2.10;;;;;;;21.14;76.16;101461.53;5004526;28;20073;-68
2023/08/13 08:09:44;;;;;;;8.90;1.50;;;;;;;21.17;74.44;101461.91;5004652;28;20548;-68
2023/08/13 08:12:09;;;;;;;10.40;2.67;;;;;;;21.30;72.52;101466.28;5000817;28;20050;-68
2023/08/13 08:14:35;;;;;;;9.40;1.83;;;;;;;21.44;73.91;101472.34;5000300;28;20038;-68
2023/08/13 08:17:05;;;;;;;10.32;2.22;;;;;;;21.86;71.59;101459.47;4998436;28;21786;-68
2023/08/13 08:19:31;;;;;;;14.65;3.15;;;;;;;21.94;71.88;101461.03;5000629;28;20038;-68
2023/08/13 08:21:58;;;;;;;9.93;2.40;;;;;;;22.04;72.77;101445.53;4997067;28;20111;-68
2023/08/13 08:24:24;;;;;;;11.20;2.25;;;;;;;21.89;70.41;101448.50;4994491;28;20026;-68
2023/08/13 08:26:50;;;;;;;7.93;1.88;;;;;;;21.78;71.27;101457.09;4999429;28;20073;-68
2023/08/13 08:29:15;;;;;;;7.40;1.70;;;;;;;21.95;71.71;101455.53;4998211;28;20417;-68
2023/08/13 08:31:40;;;;;;;9.98;1.83;;;;;;;22.27;69.81;101446.78;4998703;28;20044;-68
2023/08/13 08:34:06;;;;;;;6.95;1.70;;;;;;;22.57;67.41;101441.56;4999158;28;20496;-69
2023/08/13 08:36:31;;;;;;;9.88;1.95;;;;;;;22.89;66.05;101447.50;4996772;28;20559;-68
2023/08/13 08:38:57;;;;;;;8.10;2.03;;;;;;;23.11;65.66;101442.56;5001571;28;20538;-68
2023/08/13 08:41:25;;;;;;;10.57;2.00;;;;;;;23.32;67.26;101435.97;4999871;28;20050;-68
2023/08/13 08:43:50;;;;;;;7.97;2.25;;;;;;;23.65;65.21;101432.00;4998604;28;20038;-68
2023/08/13 08:46:17;;;;;;;7.43;1.88;;;;;;;23.83;65.99;101433.00;5000700;28;20220;-68
2023/08/13 08:48:42;;;;;;;7.95;1.75;;;;;;;24.03;63.30;101438.75;5008566;28;20496;-68
2023/08/13 08:51:08;;;;;;;11.40;2.38;;;;;;;24.15;63.89;101433.47;5006678;28;20068;-68
2023/08/13 08:53:34;;;;;;;7.57;1.80;;;;;;;24.15;61.98;101430.81;5005927;28;20103;-68
2023/08/13 08:56:00;;;;;;;6.00;1.67;;;;;;;24.10;60.63;101434.13;5000178;28;20053;-69
2023/08/13 08:58:27;;;;;;;9.10;2.63;;;;;;;24.08;61.97;101433.56;5002333;28;20038;-68
2023/08/13 09:00:58;;;;;;;5.97;1.77;;;;;;;24.10;64.16;101428.03;5003532;28;20042;-68
2023/08/13 09:03:24;;;;;;;12.90;2.42;;;;;;;24.08;60.99;101428.28;4999652;28;20080;-69
2023/08/13 09:05:50;;;;;;;9.38;1.70;;;;;;;24.07;63.30;101428.50;5002022;28;20582;-68
2023/08/13 09:08:15;;;;;;;8.75;1.85;;;;;;;23.90;63.99;101431.84;5004979;28;20490;-68
2023/08/13 09:10:42;;;;;;;8.52;1.70;;;;;;;23.95;61.50;101427.72;5002701;28;20037;-68
2023/08/13 09:13:07;;;;;;;4.15;1.48;;;;;;;23.80;60.56;101425.50;5003697;28;20075;-68
2023/08/13 09:15:33;;;;;;;4.93;2.13;;;;;;;24.07;61.56;101418.72;5003852;28;20109;-68
2023/08/13 09:17:59;;;;;;;9.65;2.78;;;;;;;23.84;60.99;101422.16;5006286;28;20111;-69
2023/08/13 09:20:25;;;;;;;7.05;1.33;;;;;;;24.02;60.59;101423.09;5010226;28;20503;-69
2023/08/13 09:22:50;;;;;;;10.93;1.88;;;;;;;24.00;61.74;101417.22;5004271;28;20026;-69
2023/08/13 09:25:17;;;;;;;6.93;1.25;;;;;;;24.13;59.88;101414.34;5003671;28;20036;-69
2023/08/13 09:27:45;;;;;;;4.75;1.25;;;;;;;24.19;61.62;101415.25;5003828;28;20041;-69
2023/08/13 09:30:26;;;;;;;4.90;1.30;;;;;;;24.08;58.08;101409.72;4999543;28;20807;-69
2023/08/13 09:32:52;;;;;;;12.15;2.28;;;;;;;23.86;60.44;101404.19;5029811;28;20695;-69
2023/08/13 09:35:17;;;;;;;7.43;1.20;;;;;;;23.71;60.48;101407.28;5024803;28;20053;-69
2023/08/13 09:37:42;;;;;;;4.43;1.48;;;;;;;23.97;60.43;101401.78;5023418;28;20033;-68
2023/08/13 09:40:08;;;;;;;9.60;1.80;;;;;;;23.89;59.77;101401.09;5022313;28;20037;-68
2023/08/13 09:42:35;;;;;;;5.25;1.38;;;;;;;24.12;60.04;101399.47;5023613;28;20078;-69
2023/08/13 09:45:08;;;;;;;5.40;1.42;;;;;;;24.13;61.33;101397.63;5028904;28;20029;-69
2023/08/13 09:47:36;;;;;;;7.07;1.80;;;;;;;24.19;59.46;101392.22;5025877;28;20046;-69
2023/08/13 09:50:03;;;;;;;7.03;1.63;;;;;;;24.32;61.04;101396.47;5024779;28;20052;-69
2023/08/13 09:52:30;;;;;;;6.07;1.40;;;;;;;24.53;57.71;101383.66;5021231;28;20549;-69
2023/08/13 09:55:09;;;;;;;7.00;1.42;;;;;;;24.60;57.84;101385.13;5028760;28;20041;-69
2023/08/13 09:57:37;;;;;;;11.65;1.60;;;;;;;24.63;57.58;101378.56;5023110;28;20049;-69
2023/08/13 10:00:03;;;;;;;4.35;1.15;;;;;;;24.94;60.83;101369.31;5028042;28;20052;-69
2023/08/13 10:02:31;;;;;;;4.10;1.20;;;;;;;25.19;56.98;101371.59;5019430;28;20056;-69
2023/08/13 10:04:57;;;;;;;8.80;1.60;;;;;;;24.79;57.52;101369.84;5029933;28;20029;-69
2023/08/13 10:07:24;;;;;;;5.93;1.25;;;;;;;24.95;54.68;101368.25;5027892;28;20502;-69
2023/08/13 10:09:50;;;;;;;4.25;1.40;;;;;;;24.78;55.29;101368.22;5023803;28;20029;-69
2023/08/13 10:12:16;;;;;;;5.25;1.85;;;;;;;24.80;57.34;101365.34;5024159;28;20205;-68
2023/08/13 10:14:42;;;;;;;10.13;1.80;;;;;;;25.01;55.47;101363.84;5027073;28;20079;-69
2023/08/13 10:17:07;;;;;;;5.93;1.42;;;;;;;25.35;55.21;101363.91;5027831;28;20045;-69
2023/08/13 10:19:40;;;;;;;8.18;1.40;;;;;;;25.13;53.97;101359.31;5025554;28;20033;-69
2023/08/13 10:22:09;;;;;;;8.38;1.50;;;;;;;25.10;53.64;101365.06;5024958;28;20037;-70
2023/08/13 10:24:35;;;;;;;8.73;2.22;;;;;;;24.76;53.23;101365.00;5025098;28;20033;-69
2023/08/13 10:27:00;;;;;;;6.20;1.30;;;;;;;24.74;54.95;101364.44;5025290;28;21560;-69
2023/08/13 10:29:36;;;;;;;5.38;1.33;;;;;;;24.73;53.63;101372.63;5025862;28;20454;-70
2023/08/13 10:32:12;;;;;;;6.78;1.60;;;;;;;24.28;56.20;101363.53;5024535;28;20049;-69
2023/08/13 10:34:50;;;;;;;5.30;1.50;;;;;;;24.14;56.78;101362.16;5023550;28;20488;-69
2023/08/13 10:37:23;;;;;;;8.93;1.92;;;;;;;24.18;56.56;101366.75;5024214;28;20041;-68
2023/08/13 10:39:54;;;;;;;8.60;2.03;;;;;;;24.21;57.08;101362.84;5022023;28;20041;-68
2023/08/13 10:42:29;;;;;;;4.38;1.60;;;;;;;24.33;60.04;101365.47;5020894;28;20080;-69
2023/08/13 10:45:06;;;;;;;6.65;1.73;;;;;;;24.47;59.74;101361.53;5026120;28;20511;-68
2023/08/13 10:47:43;;;;;;;9.02;1.75;;;;;;;24.65;56.52;101348.09;5024663;28;20121;-69
2023/08/13 10:50:30;;;;;;;7.95;1.50;;;;;;;24.62;57.69;101353.91;5024770;28;20051;-69
2023/08/13 10:53:26;;;;;;;9.05;1.38;;;;;;;24.59;55.43;101345.59;5025082;28;20056;-69
2023/08/13 10:55:59;;;;;;;7.10;1.65;;;;;;;24.65;56.01;101347.31;5027345;28;20044;-69
2023/08/13 10:58:38;;;;;;;6.45;1.77;;;;;;;24.69;55.80;101337.81;5029804;28;20037;-69
2023/08/13 11:01:09;;;;;;;3.80;1.40;;;;;;;24.84;58.54;101338.09;5018864;28;20037;-69
2023/08/13 11:03:44;;;;;;;5.35;1.60;;;;;;;24.87;58.78;101344.78;5023570;28;20484;-69
2023/08/13 11:06:10;;;;;;;14.05;2.67;;;;;;;25.03;54.14;101337.88;5025371;28;20048;-68
2023/08/13 11:08:37;;;;;;;10.32;1.90;;;;;;;25.25;57.01;101336.16;5026708;28;20038;-69
2023/08/13 11:11:03;;;;;;;8.18;1.70;;;;;;;25.42;54.43;101336.16;5023273;28;20128;-69
2023/08/13 11:13:29;;;;;;;8.57;1.88;;;;;;;25.64;54.67;101340.75;5020897;28;20112;-69
2023/08/13 11:15:55;;;;;;;8.98;2.00;;;;;;;25.49;53.54;101329.91;5021001;28;20036;-69
2023/08/13 11:18:22;;;;;;;5.32;2.13;;;;;;;25.61;53.99;101335.91;5023277;28;20021;-69